Bryce Canyon Airport
KBCE : now visible

Airfield :











YOU CAN JOIN US ON...

 
LOGIN :

Register | Disclaimer

   EN    FR    IT 

 









Legend :    VFR   Marginal VFR   IFR   Intensive IFR   Very Intensive IFR
Visi :
Ceiling :
>= 8 km
>= 3000ft
5 to 8 km
1000 to 3000 ft
1500m to 5 km
500 to 1000 ft
800 to 1500m
200 to 500 ft
< 800m
< 200 ft
Symbols :   Thunderstorms  Fog  Heavy snow  Heavy precipitations  Wind > 20 kt






- Airport Elevation : 7590 ft


KBCE - Bryce Canyon

CURRENT METAR :
  • 180453Z AUTO VRB03KT 10SM CLR 16/M03 A3030 RMK AO2 SLP111 T01611028

EXPIRED METARs :
  • 180353Z AUTO 32007KT 10SM CLR 21/M02 A3028 RMK AO2 SLP098 T02111022
  • 180253Z AUTO 35008KT 10SM CLR 23/M02 A3028 RMK AO2 SLP103 T02281017 55002

TAF KBCE
Valid from the 18 at 00:00 until the 19 at 00:00 UTC


172325Z 1800/1824 33011KT P6SM FEW100 BKN150
FM180200 27007KT P6SM SCT150 BKN200
FM181700 19009KT P6SM VCSH SCT100 BKN150
FM181900 29010KT P6SM VCTS SCT090CB BKN150
KZLC FIR / North America



MET'MAP, your aeronautical weather chart ! - Copyright ORBIFLY December 2007 - Disclaimer

ORBIFLY MET'MAP TEAM :

Programming & Development : Alexandra Zaïnal
Concept & original design : Baudouin d'Aumeries
Assistance for programming : Marc-Olivier Méhu
Technical & hardware support : Manuel Goepfert

Contact : metmap@orbifly.com




SOURCES & CREDITS :

   NOAA       Earth
Advisory